createdAt,value
2022-12-18T00:01:07.161Z,21.57
2022-12-18T00:03:30.070Z,22.47
2022-12-18T00:05:53.373Z,21.47
2022-12-18T00:08:15.977Z,25.17
2022-12-18T00:10:38.743Z,23.27
2022-12-18T00:13:03.888Z,26.10
2022-12-18T00:15:28.971Z,23.47
2022-12-18T00:17:51.344Z,25.70
2022-12-18T00:20:13.819Z,22.73
2022-12-18T00:22:49.211Z,23.63
2022-12-18T00:25:11.894Z,23.13
2022-12-18T00:27:34.496Z,22.20
2022-12-18T00:29:57.076Z,22.33
2022-12-18T00:32:19.898Z,22.00
2022-12-18T00:34:42.482Z,25.20
2022-12-18T00:37:07.955Z,24.33
2022-12-18T00:39:30.456Z,23.67
2022-12-18T00:42:12.214Z,23.10
2022-12-18T00:44:40.866Z,22.83
2022-12-18T00:47:03.330Z,22.43
2022-12-18T00:49:25.800Z,21.97
2022-12-18T00:51:48.415Z,20.00
2022-12-18T00:54:10.925Z,20.87
2022-12-18T00:56:33.454Z,21.33
2022-12-18T00:58:56.923Z,21.20
2022-12-18T01:01:19.740Z,21.13
2022-12-18T01:03:42.541Z,21.10
2022-12-18T01:06:09.693Z,21.57
2022-12-18T01:08:32.200Z,21.63
2022-12-18T01:10:54.816Z,22.60
2022-12-18T01:13:17.239Z,20.43
2022-12-18T01:15:39.887Z,20.37
2022-12-18T01:18:02.320Z,21.77
2022-12-18T01:20:24.911Z,21.60
2022-12-18T01:22:47.854Z,22.53
2022-12-18T01:25:10.330Z,19.97
2022-12-18T01:27:33.153Z,20.20
2022-12-18T01:29:55.627Z,20.13
2022-12-18T01:32:43.118Z,20.00
2022-12-18T01:35:06.488Z,20.07
2022-12-18T01:37:28.951Z,20.83
2022-12-18T01:39:53.344Z,22.40
2022-12-18T01:42:16.511Z,21.10
2022-12-18T01:44:58.084Z,22.27
2022-12-18T01:47:23.840Z,19.93
2022-12-18T01:49:46.254Z,19.63
2022-12-18T01:52:08.771Z,18.23
2022-12-18T01:54:31.440Z,19.73
2022-12-18T01:56:57.280Z,20.50
2022-12-18T01:59:20.547Z,19.87
2022-12-18T02:01:46.272Z,19.87
2022-12-18T02:04:20.516Z,21.13
2022-12-18T02:06:44.057Z,19.77
2022-12-18T02:09:11.194Z,19.93
2022-12-18T02:11:41.930Z,19.37
2022-12-18T02:14:08.170Z,18.67
2022-12-18T02:16:48.603Z,17.73
2022-12-18T02:19:30.230Z,18.67
2022-12-18T02:22:08.100Z,18.80
2022-12-18T02:24:36.770Z,18.30
2022-12-18T02:27:01.232Z,19.37
2022-12-18T02:29:29.079Z,17.90
2022-12-18T02:31:55.296Z,17.17
2022-12-18T02:34:18.287Z,18.97
2022-12-18T02:36:51.769Z,17.73
2022-12-18T02:39:15.843Z,18.13
2022-12-18T02:41:49.715Z,18.03
2022-12-18T02:44:13.459Z,17.63
2022-12-18T02:46:38.694Z,18.10
2022-12-18T02:49:12.249Z,17.90
2022-12-18T02:51:50.325Z,17.73
2022-12-18T02:54:18.167Z,19.20
2022-12-18T02:56:42.720Z,18.93
2022-12-18T02:59:08.206Z,17.87
2022-12-18T03:02:08.303Z,18.90
2022-12-18T03:04:40.076Z,19.37
2022-12-18T03:07:09.582Z,18.33
2022-12-18T03:09:41.351Z,17.87
2022-12-18T03:12:24.865Z,20.60
2022-12-18T03:14:52.883Z,19.67
2022-12-18T03:17:21.422Z,20.43
2022-12-18T03:19:44.752Z,20.03
2022-12-18T03:22:09.305Z,19.53
2022-12-18T03:24:40.595Z,19.57
2022-12-18T03:27:04.613Z,17.83
2022-12-18T03:29:29.021Z,18.77
2022-12-18T03:31:56.675Z,18.83
2022-12-18T03:34:21.606Z,16.80
2022-12-18T03:36:44.218Z,17.63
2022-12-18T03:39:07.384Z,17.93
2022-12-18T03:41:42.562Z,18.53
2022-12-18T03:44:28.264Z,15.97
2022-12-18T03:46:50.980Z,17.43
2022-12-18T03:49:16.440Z,18.47
2022-12-18T03:51:53.454Z,18.17
2022-12-18T03:54:16.596Z,18.83
2022-12-18T03:56:53.422Z,16.37
2022-12-18T03:59:18.347Z,17.87
2022-12-18T04:01:43.312Z,17.70
2022-12-18T04:04:10.172Z,18.97
2022-12-18T04:06:38.650Z,17.53
2022-12-18T04:09:01.394Z,16.80
2022-12-18T04:11:24.776Z,17.57
2022-12-18T04:13:47.270Z,17.40
2022-12-18T04:16:16.019Z,16.57
2022-12-18T04:18:40.659Z,16.10
2022-12-18T04:21:05.022Z,16.30
2022-12-18T04:23:29.706Z,16.63
2022-12-18T04:25:54.461Z,17.67
2022-12-18T04:28:30.287Z,16.80
2022-12-18T04:30:52.823Z,17.33
2022-12-18T04:33:19.254Z,17.37
2022-12-18T04:35:42.171Z,17.17
2022-12-18T04:38:04.450Z,18.63
2022-12-18T04:40:26.742Z,17.97
2022-12-18T04:42:49.179Z,17.00
2022-12-18T04:45:11.734Z,17.93
2022-12-18T04:47:33.992Z,18.00
2022-12-18T04:49:56.395Z,16.67
2022-12-18T04:52:18.803Z,17.83
2022-12-18T04:54:41.013Z,17.77
2022-12-18T04:57:03.262Z,18.57
2022-12-18T04:59:25.487Z,17.30
2022-12-18T05:01:47.880Z,18.73
2022-12-18T05:04:10.383Z,17.83
2022-12-18T05:06:32.659Z,18.00
2022-12-18T05:08:55.048Z,18.93
2022-12-18T05:11:17.675Z,18.00
2022-12-18T05:13:40.385Z,18.33
2022-12-18T05:16:03.122Z,17.03
2022-12-18T05:18:25.734Z,18.03
2022-12-18T05:20:48.469Z,17.20
2022-12-18T05:23:10.643Z,17.83
2022-12-18T05:25:33.039Z,16.47
2022-12-18T05:27:55.436Z,17.10
2022-12-18T05:30:17.780Z,17.23
2022-12-18T05:32:40.367Z,18.87
2022-12-18T05:35:02.672Z,17.50
2022-12-18T05:37:24.862Z,17.17
2022-12-18T05:39:47.038Z,17.60
2022-12-18T05:42:09.332Z,16.63
2022-12-18T05:44:31.607Z,16.33
2022-12-18T05:46:54.093Z,17.40
2022-12-18T05:49:16.359Z,17.27
2022-12-18T05:51:38.676Z,18.20
2022-12-18T05:54:03.178Z,17.53
2022-12-18T05:56:25.576Z,16.87
2022-12-18T05:58:48.169Z,17.70
2022-12-18T06:01:12.187Z,17.77
2022-12-18T06:03:34.658Z,17.33
2022-12-18T06:05:56.973Z,18.07
2022-12-18T06:08:19.241Z,17.07
2022-12-18T06:10:41.953Z,16.57
2022-12-18T06:13:04.417Z,18.63
2022-12-18T06:15:26.804Z,18.13
2022-12-18T06:17:49.145Z,18.47
2022-12-18T06:20:11.658Z,17.10
2022-12-18T06:22:34.064Z,17.17
2022-12-18T06:24:56.395Z,17.33
2022-12-18T06:27:18.838Z,18.57
2022-12-18T06:29:41.037Z,16.87
2022-12-18T06:32:03.438Z,17.93
2022-12-18T06:34:25.851Z,17.07
2022-12-18T06:36:48.071Z,16.73
2022-12-18T06:39:10.453Z,17.33
2022-12-18T06:41:32.651Z,16.73
2022-12-18T06:43:59.546Z,16.13
2022-12-18T06:46:22.225Z,18.17
2022-12-18T06:48:44.549Z,16.27
2022-12-18T06:51:07.027Z,17.80
2022-12-18T06:53:29.363Z,16.43
2022-12-18T06:55:52.004Z,16.40
2022-12-18T06:58:14.378Z,18.67
2022-12-18T07:00:36.672Z,18.17
2022-12-18T07:02:58.975Z,16.10
2022-12-18T07:05:21.399Z,17.27
2022-12-18T07:07:43.608Z,18.47
2022-12-18T07:10:06.037Z,18.60
2022-12-18T07:12:28.781Z,17.03
2022-12-18T07:14:51.058Z,17.60
2022-12-18T07:17:13.321Z,17.23
2022-12-18T07:19:35.904Z,17.23
2022-12-18T07:21:58.118Z,17.33
2022-12-18T07:24:20.362Z,19.07
2022-12-18T07:26:42.743Z,17.17
2022-12-18T07:29:05.107Z,16.30
2022-12-18T07:31:27.772Z,18.10
2022-12-18T07:33:51.112Z,17.90
2022-12-18T07:36:13.719Z,18.23
2022-12-18T07:38:36.599Z,18.50
2022-12-18T07:41:06.785Z,15.83
2022-12-18T07:43:29.424Z,15.27
2022-12-18T07:45:51.830Z,17.10
2022-12-18T07:48:14.232Z,15.77
2022-12-18T07:50:36.702Z,18.57
2022-12-18T07:52:58.939Z,18.00
2022-12-18T07:55:21.230Z,16.97
2022-12-18T07:57:53.318Z,18.33
2022-12-18T08:00:18.104Z,17.20
2022-12-18T08:02:40.460Z,18.67
2022-12-18T08:05:10.918Z,18.37
2022-12-18T08:07:33.139Z,17.30
2022-12-18T08:09:55.495Z,16.50
2022-12-18T08:12:17.776Z,18.87
2022-12-18T08:14:40.502Z,18.30
2022-12-18T08:17:02.795Z,18.73
2022-12-18T08:19:25.210Z,18.37
2022-12-18T08:21:47.618Z,17.30
2022-12-18T08:24:10.930Z,19.53
2022-12-18T08:26:33.286Z,20.57
2022-12-18T08:28:56.620Z,19.03
2022-12-18T08:31:20.321Z,19.10
2022-12-18T08:33:44.494Z,20.03
2022-12-18T08:36:08.129Z,18.33
2022-12-18T08:38:30.922Z,21.87
2022-12-18T08:41:03.470Z,20.40
2022-12-18T08:43:45.411Z,21.17
2022-12-18T08:46:12.013Z,21.27
2022-12-18T08:48:37.293Z,19.87
2022-12-18T08:51:20.221Z,20.67
2022-12-18T08:53:48.829Z,22.30
2022-12-18T08:56:14.231Z,23.80
2022-12-18T09:02:43.062Z,22.60
2022-12-18T09:08:40.828Z,23.40
2022-12-18T09:42:35.325Z,23.37
2022-12-18T09:52:53.652Z,22.47
2022-12-18T09:58:45.455Z,22.60
2022-12-18T10:01:36.372Z,21.37
2022-12-18T10:07:57.730Z,20.33
2022-12-18T10:10:46.261Z,19.63
2022-12-18T10:17:00.711Z,21.83
2022-12-18T10:19:53.145Z,20.83
2022-12-18T10:33:47.050Z,22.03
2022-12-18T10:39:40.915Z,21.60
2022-12-18T10:42:19.855Z,22.57
2022-12-18T10:49:01.633Z,21.33
2022-12-18T10:55:29.030Z,21.10
2022-12-18T10:57:51.615Z,22.37
2022-12-18T11:00:59.487Z,21.57
2022-12-18T11:03:32.563Z,22.50
2022-12-18T11:06:35.630Z,22.13
2022-12-18T11:12:48.951Z,22.00
2022-12-18T11:15:23.908Z,23.40
2022-12-18T11:17:50.002Z,22.73
2022-12-18T11:23:32.114Z,21.87
2022-12-18T11:25:59.255Z,22.53
2022-12-18T11:28:37.332Z,23.97
2022-12-18T11:31:38.965Z,22.83
2022-12-18T11:34:28.231Z,23.23
2022-12-18T11:36:48.316Z,22.33
2022-12-18T11:39:31.393Z,22.33
2022-12-18T11:42:12.665Z,22.07
2022-12-18T11:44:45.532Z,21.40
2022-12-18T11:47:34.561Z,22.63
2022-12-18T11:50:04.094Z,21.60
2022-12-18T11:52:32.108Z,22.13
2022-12-18T11:54:55.168Z,22.67
2022-12-18T11:57:36.200Z,24.10
2022-12-18T12:00:19.409Z,22.50
2022-12-18T12:03:05.499Z,22.63
2022-12-18T12:05:40.413Z,21.33
2022-12-18T12:08:14.258Z,21.83
2022-12-18T12:10:55.860Z,22.40
2022-12-18T12:13:21.521Z,22.63
2022-12-18T12:15:44.487Z,22.60
2022-12-18T12:18:12.828Z,21.07
2022-12-18T12:20:36.245Z,21.00
2022-12-18T12:22:59.384Z,22.30
2022-12-18T12:25:28.873Z,22.63
2022-12-18T12:28:07.351Z,22.77
2022-12-18T12:30:37.904Z,22.20
2022-12-18T12:37:21.890Z,21.93
2022-12-18T12:39:46.571Z,22.63
2022-12-18T12:42:43.871Z,23.03
2022-12-18T12:45:08.928Z,21.57
2022-12-18T12:48:08.103Z,21.13
2022-12-18T12:50:42.206Z,20.83
2022-12-18T12:53:09.820Z,22.80
2022-12-18T12:55:36.737Z,21.97
2022-12-18T12:58:05.453Z,22.03
2022-12-18T13:00:33.375Z,23.07
2022-12-18T13:03:17.278Z,23.40
2022-12-18T13:05:47.649Z,25.50
2022-12-18T13:08:14.539Z,23.20
2022-12-18T13:10:43.876Z,24.17
2022-12-18T13:13:16.502Z,25.53
2022-12-18T13:15:49.699Z,25.03
2022-12-18T13:18:12.777Z,25.20
2022-12-18T13:20:40.456Z,24.97
2022-12-18T13:23:03.085Z,25.40
2022-12-18T13:25:31.717Z,24.93
2022-12-18T13:28:05.605Z,25.23
2022-12-18T13:30:48.327Z,26.20
2022-12-18T13:36:34.523Z,24.80
2022-12-18T13:39:28.894Z,23.67
2022-12-18T13:42:53.929Z,24.87
2022-12-18T13:45:58.644Z,24.77
2022-12-18T13:56:29.533Z,24.10
2022-12-18T14:02:49.478Z,28.47
2022-12-18T14:05:30.969Z,26.93
2022-12-18T14:08:04.158Z,24.77
2022-12-18T14:10:48.979Z,24.83
2022-12-18T14:23:44.405Z,24.90
2022-12-18T14:26:28.745Z,27.70
2022-12-18T14:28:52.561Z,26.00
2022-12-18T14:31:25.064Z,26.13
2022-12-18T14:33:47.715Z,26.20
2022-12-18T14:36:20.334Z,27.70
2022-12-18T14:43:21.532Z,27.67
2022-12-18T14:45:47.436Z,26.90
2022-12-18T14:48:31.902Z,28.07
2022-12-18T14:58:20.778Z,28.43
2022-12-18T15:01:16.300Z,27.83
2022-12-18T15:04:26.271Z,28.57
2022-12-18T15:06:51.162Z,27.57
2022-12-18T15:16:28.844Z,29.97
2022-12-18T15:18:59.732Z,28.77
2022-12-18T15:21:50.872Z,31.77
2022-12-18T15:24:28.275Z,29.90
2022-12-18T15:26:53.031Z,29.07
2022-12-18T15:29:40.980Z,30.20
2022-12-18T15:32:05.373Z,28.57
2022-12-18T15:34:41.029Z,32.50
2022-12-18T15:37:06.137Z,31.17
2022-12-18T15:39:31.962Z,30.90
2022-12-18T15:42:16.178Z,32.93
2022-12-18T15:44:41.051Z,32.73
2022-12-18T15:47:03.413Z,30.70
2022-12-18T15:49:26.145Z,33.80
2022-12-18T15:51:52.004Z,30.13
2022-12-18T15:54:43.957Z,31.43
2022-12-18T15:57:24.622Z,30.17
2022-12-18T16:06:02.348Z,30.10
2022-12-18T16:08:25.058Z,28.60
2022-12-18T16:10:47.397Z,29.67
2022-12-18T16:13:14.064Z,30.57
2022-12-18T16:15:36.476Z,30.23
2022-12-18T16:17:58.999Z,30.20
2022-12-18T16:20:24.386Z,31.20
2022-12-18T16:22:56.400Z,27.97
2022-12-18T16:25:21.439Z,28.17
2022-12-18T16:27:47.890Z,29.97
2022-12-18T16:33:19.092Z,31.20
2022-12-18T16:35:41.641Z,29.60
2022-12-18T16:38:08.640Z,30.53
2022-12-18T16:40:33.231Z,29.63
2022-12-18T16:42:55.981Z,31.53
2022-12-18T16:45:19.771Z,29.27
2022-12-18T16:47:42.832Z,28.27
2022-12-18T16:50:05.747Z,30.50
2022-12-18T16:52:39.292Z,28.97
2022-12-18T16:55:01.980Z,29.17
2022-12-18T16:57:27.766Z,29.40
2022-12-18T16:59:50.655Z,29.10
2022-12-18T17:02:22.850Z,27.90
2022-12-18T17:04:48.016Z,30.60
2022-12-18T17:07:10.703Z,29.17
2022-12-18T17:09:39.841Z,27.83
2022-12-18T17:12:04.441Z,27.20
2022-12-18T17:14:28.585Z,28.40
2022-12-18T17:17:20.257Z,26.90
2022-12-18T17:20:08.687Z,30.87
2022-12-18T17:22:31.433Z,27.63
2022-12-18T17:24:56.578Z,27.00
2022-12-18T17:27:20.543Z,28.33
2022-12-18T17:29:55.480Z,28.77
2022-12-18T17:32:47.670Z,27.87
2022-12-18T17:38:42.028Z,27.17
2022-12-18T17:41:09.421Z,26.70
2022-12-18T17:43:57.570Z,27.13
2022-12-18T17:46:20.413Z,25.53
2022-12-18T17:48:43.128Z,29.33
2022-12-18T17:51:06.923Z,34.67
2022-12-18T17:53:31.408Z,35.57
2022-12-18T17:56:13.632Z,30.43
2022-12-18T17:58:42.304Z,27.10
2022-12-18T18:01:05.813Z,26.53
2022-12-18T18:03:28.994Z,27.50
2022-12-18T18:06:14.094Z,27.70
2022-12-18T18:11:39.883Z,26.97
2022-12-18T18:14:02.788Z,24.80
2022-12-18T18:16:35.997Z,26.30
2022-12-18T18:18:59.431Z,25.67
2022-12-18T18:21:21.996Z,28.33
2022-12-18T18:23:44.519Z,32.23
2022-12-18T18:26:09.865Z,36.80
2022-12-18T18:28:32.730Z,30.27
2022-12-18T18:30:55.671Z,28.50
2022-12-18T18:33:18.340Z,26.37
2022-12-18T18:35:53.696Z,26.93
2022-12-18T18:38:17.247Z,27.10
2022-12-18T18:40:39.747Z,27.07
2022-12-18T18:43:02.299Z,27.40
2022-12-18T18:45:26.990Z,30.40
2022-12-18T18:47:52.448Z,26.57
2022-12-18T18:50:17.343Z,27.97
2022-12-18T18:52:39.876Z,26.97
2022-12-18T18:55:13.373Z,27.53
2022-12-18T18:57:42.696Z,24.80
2022-12-18T19:00:09.976Z,23.87
2022-12-18T19:02:33.260Z,25.23
2022-12-18T19:04:56.066Z,27.30
2022-12-18T19:07:29.874Z,26.47
2022-12-18T19:10:14.777Z,26.90
2022-12-18T19:12:56.324Z,27.03
2022-12-18T19:15:19.106Z,28.57
2022-12-18T19:17:45.999Z,27.23
2022-12-18T19:20:40.851Z,32.40
2022-12-18T19:22:59.922Z,28.40
2022-12-18T19:25:26.822Z,28.03
2022-12-18T19:28:00.909Z,29.50
2022-12-18T19:30:26.705Z,32.30
2022-12-18T19:32:49.152Z,32.90
2022-12-18T19:35:11.995Z,34.13
2022-12-18T19:37:37.014Z,34.03
2022-12-18T19:39:59.567Z,29.57
2022-12-18T19:42:31.952Z,28.87
2022-12-18T19:45:00.555Z,27.57
2022-12-18T19:47:29.234Z,29.10
2022-12-18T19:49:53.519Z,29.13
2022-12-18T19:52:16.424Z,26.57
2022-12-18T19:54:52.337Z,29.47
2022-12-18T19:57:15.681Z,26.80
2022-12-18T19:59:38.982Z,27.20
2022-12-18T20:02:02.219Z,29.00
2022-12-18T20:04:33.431Z,27.50
2022-12-18T20:06:56.426Z,27.17
2022-12-18T20:10:10.788Z,27.53
2022-12-18T20:12:33.817Z,27.67
2022-12-18T20:15:05.081Z,26.17
2022-12-18T20:17:40.355Z,26.97
2022-12-18T20:20:03.777Z,29.50
2022-12-18T20:22:26.604Z,28.63
2022-12-18T20:24:49.589Z,32.33
2022-12-18T20:27:19.500Z,29.77
2022-12-18T20:29:43.548Z,31.20
2022-12-18T20:32:06.775Z,31.57
2022-12-18T20:34:57.523Z,31.87
2022-12-18T20:37:20.311Z,31.50
2022-12-18T20:39:53.188Z,33.10
2022-12-18T20:42:16.603Z,32.03
2022-12-18T20:44:39.422Z,32.60
2022-12-18T20:47:04.978Z,31.60
2022-12-18T20:49:31.781Z,31.50
2022-12-18T20:51:56.626Z,30.27
2022-12-18T20:54:23.009Z,29.17
2022-12-18T20:56:45.442Z,31.20
2022-12-18T20:59:07.871Z,30.40
2022-12-18T21:01:31.858Z,29.17
2022-12-18T21:03:54.915Z,33.83
2022-12-18T21:06:18.325Z,31.83
2022-12-18T21:08:40.905Z,31.00
2022-12-18T21:11:39.931Z,27.53
2022-12-18T21:14:03.339Z,27.87
2022-12-18T21:16:26.329Z,28.17
2022-12-18T21:18:49.003Z,29.17
2022-12-18T21:21:12.305Z,31.23
2022-12-18T21:23:35.604Z,41.43
2022-12-18T21:26:15.362Z,37.53
2022-12-18T21:29:00.301Z,33.20
2022-12-18T21:31:23.937Z,30.13
2022-12-18T21:33:46.634Z,29.23
2022-12-18T21:36:11.066Z,32.83
2022-12-18T21:38:33.909Z,29.33
2022-12-18T21:40:56.545Z,28.27
2022-12-18T21:43:44.924Z,28.50
2022-12-18T21:46:07.505Z,32.07
2022-12-18T21:48:33.469Z,34.97
2022-12-18T21:50:58.823Z,37.10
2022-12-18T21:53:21.503Z,52.77
2022-12-18T21:58:56.704Z,50.50
2022-12-18T22:01:19.857Z,44.63
2022-12-18T22:06:45.015Z,44.30
2022-12-18T22:09:07.422Z,32.87
2022-12-18T22:11:29.803Z,29.53
2022-12-18T22:13:52.302Z,29.13
2022-12-18T22:16:14.849Z,30.07
2022-12-18T22:18:37.240Z,29.17
2022-12-18T22:21:03.476Z,28.57
2022-12-18T22:23:26.123Z,27.27
2022-12-18T22:25:48.563Z,25.60
2022-12-18T22:28:29.498Z,28.30
2022-12-18T22:30:52.507Z,29.43
2022-12-18T22:33:21.332Z,26.77
2022-12-18T22:35:43.591Z,27.57
2022-12-18T22:38:06.013Z,31.20
2022-12-18T22:40:28.809Z,30.53
2022-12-18T22:42:51.346Z,30.53
2022-12-18T22:45:15.426Z,29.80
2022-12-18T22:47:37.789Z,29.50
2022-12-18T22:50:03.805Z,31.70
2022-12-18T22:52:26.616Z,29.30
2022-12-18T22:54:49.383Z,30.63
2022-12-18T22:57:11.639Z,28.23
2022-12-18T22:59:34.164Z,28.93
2022-12-18T23:01:58.533Z,29.80
2022-12-18T23:04:22.642Z,28.90
2022-12-18T23:06:47.419Z,29.87
2022-12-18T23:09:15.003Z,31.23
2022-12-18T23:11:37.757Z,29.80
2022-12-18T23:14:00.097Z,29.23
2022-12-18T23:16:22.937Z,30.93
2022-12-18T23:18:45.355Z,31.53
2022-12-18T23:21:09.346Z,28.87
2022-12-18T23:23:33.838Z,27.50
2022-12-18T23:26:03.129Z,30.67
2022-12-18T23:28:25.506Z,30.37
2022-12-18T23:30:50.251Z,31.70
2022-12-18T23:33:12.558Z,29.03
2022-12-18T23:35:34.874Z,29.70
2022-12-18T23:37:58.460Z,27.07
2022-12-18T23:40:21.827Z,27.73
2022-12-18T23:42:44.093Z,29.57
2022-12-18T23:45:17.852Z,28.17
2022-12-18T23:47:40.520Z,26.37
2022-12-18T23:50:02.798Z,26.87
2022-12-18T23:52:25.073Z,27.77
2022-12-18T23:54:47.304Z,28.57
2022-12-18T23:57:09.482Z,28.27
2022-12-18T23:59:31.916Z,27.73
